sensor_id;sensor_type;location;lat;lon;timestamp;temperature;humidity
3550;DHT22;45572;48.804;8.330;2023-09-08T00:00:05;19.60;90.00
3550;DHT22;45572;48.804;8.330;2023-09-08T00:02:33;19.50;90.40
3550;DHT22;45572;48.804;8.330;2023-09-08T00:05:01;19.50;90.40
3550;DHT22;45572;48.804;8.330;2023-09-08T00:07:29;19.50;90.60
3550;DHT22;45572;48.804;8.330;2023-09-08T00:09:58;19.40;90.70
3550;DHT22;45572;48.804;8.330;2023-09-08T00:12:26;19.40;90.80
3550;DHT22;45572;48.804;8.330;2023-09-08T00:14:54;19.40;90.80
3550;DHT22;45572;48.804;8.330;2023-09-08T00:17:22;19.30;90.80
3550;DHT22;45572;48.804;8.330;2023-09-08T00:19:49;19.20;91.10
3550;DHT22;45572;48.804;8.330;2023-09-08T00:22:18;19.20;91.00
3550;DHT22;45572;48.804;8.330;2023-09-08T00:24:46;19.20;91.20
3550;DHT22;45572;48.804;8.330;2023-09-08T00:27:15;19.20;91.30
3550;DHT22;45572;48.804;8.330;2023-09-08T00:29:42;19.20;91.40
3550;DHT22;45572;48.804;8.330;2023-09-08T00:32:10;19.10;91.70
3550;DHT22;45572;48.804;8.330;2023-09-08T00:34:40;19.10;91.90
3550;DHT22;45572;48.804;8.330;2023-09-08T00:37:08;19.10;91.60
3550;DHT22;45572;48.804;8.330;2023-09-08T00:39:37;19.10;91.60
3550;DHT22;45572;48.804;8.330;2023-09-08T00:42:06;19.10;91.60
3550;DHT22;45572;48.804;8.330;2023-09-08T00:44:35;19.10;91.40
3550;DHT22;45572;48.804;8.330;2023-09-08T00:47:03;19.00;91.70
3550;DHT22;45572;48.804;8.330;2023-09-08T00:49:31;19.00;91.80
3550;DHT22;45572;48.804;8.330;2023-09-08T00:51:59;18.90;92.10
3550;DHT22;45572;48.804;8.330;2023-09-08T00:54:28;18.90;92.00
3550;DHT22;45572;48.804;8.330;2023-09-08T00:56:57;19.00;92.00
3550;DHT22;45572;48.804;8.330;2023-09-08T00:59:25;18.80;92.00
3550;DHT22;45572;48.804;8.330;2023-09-08T01:01:55;18.70;92.50
3550;DHT22;45572;48.804;8.330;2023-09-08T01:04:22;18.70;92.50
3550;DHT22;45572;48.804;8.330;2023-09-08T01:06:51;18.80;92.60
3550;DHT22;45572;48.804;8.330;2023-09-08T01:09:19;18.80;92.40
3550;DHT22;45572;48.804;8.330;2023-09-08T01:11:47;18.70;92.40
3550;DHT22;45572;48.804;8.330;2023-09-08T01:14:17;18.70;92.40
3550;DHT22;45572;48.804;8.330;2023-09-08T01:16:45;18.70;92.40
3550;DHT22;45572;48.804;8.330;2023-09-08T01:19:16;18.70;92.50
3550;DHT22;45572;48.804;8.330;2023-09-08T01:21:57;18.70;92.70
3550;DHT22;45572;48.804;8.330;2023-09-08T01:24:38;18.70;92.60
3550;DHT22;45572;48.804;8.330;2023-09-08T01:27:14;18.80;92.50
3550;DHT22;45572;48.804;8.330;2023-09-08T01:29:44;18.80;92.50
3550;DHT22;45572;48.804;8.330;2023-09-08T01:32:13;18.70;92.40
3550;DHT22;45572;48.804;8.330;2023-09-08T01:34:41;18.70;92.60
3550;DHT22;45572;48.804;8.330;2023-09-08T01:37:09;18.70;92.80
3550;DHT22;45572;48.804;8.330;2023-09-08T01:39:36;18.70;92.70
3550;DHT22;45572;48.804;8.330;2023-09-08T01:42:04;18.70;92.50
3550;DHT22;45572;48.804;8.330;2023-09-08T01:44:33;18.60;92.50
3550;DHT22;45572;48.804;8.330;2023-09-08T01:47:02;18.50;92.90
3550;DHT22;45572;48.804;8.330;2023-09-08T01:49:30;18.60;93.10
3550;DHT22;45572;48.804;8.330;2023-09-08T01:51:58;18.60;93.00
3550;DHT22;45572;48.804;8.330;2023-09-08T01:54:26;18.60;93.10
3550;DHT22;45572;48.804;8.330;2023-09-08T01:56:54;18.70;93.10
3550;DHT22;45572;48.804;8.330;2023-09-08T01:59:22;18.70;93.00
3550;DHT22;45572;48.804;8.330;2023-09-08T02:01:51;18.70;92.90
3550;DHT22;45572;48.804;8.330;2023-09-08T02:04:18;18.70;92.60
3550;DHT22;45572;48.804;8.330;2023-09-08T02:06:46;18.70;92.60
3550;DHT22;45572;48.804;8.330;2023-09-08T02:09:14;18.70;92.50
3550;DHT22;45572;48.804;8.330;2023-09-08T02:11:42;18.80;92.40
3550;DHT22;45572;48.804;8.330;2023-09-08T02:14:10;18.80;92.30
3550;DHT22;45572;48.804;8.330;2023-09-08T02:16:38;18.80;92.50
3550;DHT22;45572;48.804;8.330;2023-09-08T02:19:08;18.80;92.30
3550;DHT22;45572;48.804;8.330;2023-09-08T02:21:36;18.70;92.30
3550;DHT22;45572;48.804;8.330;2023-09-08T02:24:04;18.70;92.40
3550;DHT22;45572;48.804;8.330;2023-09-08T02:26:33;18.70;92.40
3550;DHT22;45572;48.804;8.330;2023-09-08T02:29:01;18.70;92.40
3550;DHT22;45572;48.804;8.330;2023-09-08T02:31:28;18.70;92.40
3550;DHT22;45572;48.804;8.330;2023-09-08T02:33:56;18.70;92.30
3550;DHT22;45572;48.804;8.330;2023-09-08T02:36:26;18.60;92.30
3550;DHT22;45572;48.804;8.330;2023-09-08T02:38:56;18.50;92.50
3550;DHT22;45572;48.804;8.330;2023-09-08T02:41:24;18.50;92.70
3550;DHT22;45572;48.804;8.330;2023-09-08T02:43:52;18.50;92.70
3550;DHT22;45572;48.804;8.330;2023-09-08T02:46:20;18.40;92.90
3550;DHT22;45572;48.804;8.330;2023-09-08T02:48:48;18.30;93.00
3550;DHT22;45572;48.804;8.330;2023-09-08T02:51:16;18.30;93.40
3550;DHT22;45572;48.804;8.330;2023-09-08T02:53:46;18.30;93.50
3550;DHT22;45572;48.804;8.330;2023-09-08T02:56:13;18.30;93.50
3550;DHT22;45572;48.804;8.330;2023-09-08T02:58:41;18.30;93.60
3550;DHT22;45572;48.804;8.330;2023-09-08T03:01:10;18.30;93.70
3550;DHT22;45572;48.804;8.330;2023-09-08T03:03:40;18.30;93.60
3550;DHT22;45572;48.804;8.330;2023-09-08T03:06:10;18.30;93.50
3550;DHT22;45572;48.804;8.330;2023-09-08T03:08:39;18.30;93.40
3550;DHT22;45572;48.804;8.330;2023-09-08T03:11:08;18.30;93.30
3550;DHT22;45572;48.804;8.330;2023-09-08T03:13:36;18.30;93.50
3550;DHT22;45572;48.804;8.330;2023-09-08T03:16:04;18.30;93.40
3550;DHT22;45572;48.804;8.330;2023-09-08T03:18:32;18.30;93.30
3550;DHT22;45572;48.804;8.330;2023-09-08T03:21:03;18.40;93.30
3550;DHT22;45572;48.804;8.330;2023-09-08T03:23:37;18.40;93.20
3550;DHT22;45572;48.804;8.330;2023-09-08T03:26:05;18.30;93.30
3550;DHT22;45572;48.804;8.330;2023-09-08T03:28:35;18.30;93.30
3550;DHT22;45572;48.804;8.330;2023-09-08T03:31:04;18.30;93.10
3550;DHT22;45572;48.804;8.330;2023-09-08T03:33:34;18.30;93.00
3550;DHT22;45572;48.804;8.330;2023-09-08T03:36:04;18.30;92.80
3550;DHT22;45572;48.804;8.330;2023-09-08T03:38:33;18.20;93.00
3550;DHT22;45572;48.804;8.330;2023-09-08T03:41:03;18.20;93.30
3550;DHT22;45572;48.804;8.330;2023-09-08T03:43:31;18.20;93.20
3550;DHT22;45572;48.804;8.330;2023-09-08T03:46:02;18.20;93.20
3550;DHT22;45572;48.804;8.330;2023-09-08T03:48:30;18.20;93.30
3550;DHT22;45572;48.804;8.330;2023-09-08T03:50:58;18.10;93.40
3550;DHT22;45572;48.804;8.330;2023-09-08T03:53:26;18.00;93.40
3550;DHT22;45572;48.804;8.330;2023-09-08T03:55:54;18.00;93.70
3550;DHT22;45572;48.804;8.330;2023-09-08T03:58:22;18.00;93.40
3550;DHT22;45572;48.804;8.330;2023-09-08T04:00:50;18.00;93.40
3550;DHT22;45572;48.804;8.330;2023-09-08T04:03:19;18.00;93.30
3550;DHT22;45572;48.804;8.330;2023-09-08T04:05:47;18.00;93.10
3550;DHT22;45572;48.804;8.330;2023-09-08T04:08:15;18.00;93.10
3550;DHT22;45572;48.804;8.330;2023-09-08T04:10:43;17.90;93.20
3550;DHT22;45572;48.804;8.330;2023-09-08T04:13:10;17.80;93.50
3550;DHT22;45572;48.804;8.330;2023-09-08T04:15:38;17.70;93.70
3550;DHT22;45572;48.804;8.330;2023-09-08T04:18:06;17.60;94.30
3550;DHT22;45572;48.804;8.330;2023-09-08T04:20:35;17.60;94.40
3550;DHT22;45572;48.804;8.330;2023-09-08T04:23:03;17.60;94.20
3550;DHT22;45572;48.804;8.330;2023-09-08T04:25:31;17.60;94.40
3550;DHT22;45572;48.804;8.330;2023-09-08T04:27:59;17.70;94.50
3550;DHT22;45572;48.804;8.330;2023-09-08T04:30:27;17.70;94.50
3550;DHT22;45572;48.804;8.330;2023-09-08T04:32:55;17.70;94.50
3550;DHT22;45572;48.804;8.330;2023-09-08T04:35:23;17.80;94.40
3550;DHT22;45572;48.804;8.330;2023-09-08T04:37:52;17.80;94.30
3550;DHT22;45572;48.804;8.330;2023-09-08T04:40:20;17.80;94.60
3550;DHT22;45572;48.804;8.330;2023-09-08T04:42:48;17.80;94.40
3550;DHT22;45572;48.804;8.330;2023-09-08T04:45:16;17.80;94.50
3550;DHT22;45572;48.804;8.330;2023-09-08T04:47:44;17.80;94.50
3550;DHT22;45572;48.804;8.330;2023-09-08T04:50:15;17.70;94.60
3550;DHT22;45572;48.804;8.330;2023-09-08T04:52:44;17.80;94.70
3550;DHT22;45572;48.804;8.330;2023-09-08T04:55:13;17.80;94.30
3550;DHT22;45572;48.804;8.330;2023-09-08T04:57:41;17.80;94.20
3550;DHT22;45572;48.804;8.330;2023-09-08T05:00:09;17.80;94.10
3550;DHT22;45572;48.804;8.330;2023-09-08T05:02:38;17.70;94.20
3550;DHT22;45572;48.804;8.330;2023-09-08T05:05:07;17.80;94.40
3550;DHT22;45572;48.804;8.330;2023-09-08T05:07:35;17.80;94.40
3550;DHT22;45572;48.804;8.330;2023-09-08T05:10:04;17.80;94.60
3550;DHT22;45572;48.804;8.330;2023-09-08T05:12:35;17.80;94.40
3550;DHT22;45572;48.804;8.330;2023-09-08T05:15:04;17.90;94.30
3550;DHT22;45572;48.804;8.330;2023-09-08T05:17:38;18.00;94.30
3550;DHT22;45572;48.804;8.330;2023-09-08T05:20:08;18.00;94.10
3550;DHT22;45572;48.804;8.330;2023-09-08T05:22:36;18.00;94.20
3550;DHT22;45572;48.804;8.330;2023-09-08T05:25:05;18.10;93.90
3550;DHT22;45572;48.804;8.330;2023-09-08T05:27:35;18.10;93.50
3550;DHT22;45572;48.804;8.330;2023-09-08T05:30:04;18.00;93.60
3550;DHT22;45572;48.804;8.330;2023-09-08T05:32:34;18.00;93.60
3550;DHT22;45572;48.804;8.330;2023-09-08T05:35:03;18.00;93.80
3550;DHT22;45572;48.804;8.330;2023-09-08T05:37:31;18.10;93.70
3550;DHT22;45572;48.804;8.330;2023-09-08T05:39:58;18.10;93.50
3550;DHT22;45572;48.804;8.330;2023-09-08T05:42:26;18.20;93.70
3550;DHT22;45572;48.804;8.330;2023-09-08T05:44:55;18.30;93.30
3550;DHT22;45572;48.804;8.330;2023-09-08T05:47:23;18.30;93.20
3550;DHT22;45572;48.804;8.330;2023-09-08T05:49:52;18.40;93.30
3550;DHT22;45572;48.804;8.330;2023-09-08T05:52:20;18.50;93.40
3550;DHT22;45572;48.804;8.330;2023-09-08T05:54:49;18.60;92.80
3550;DHT22;45572;48.804;8.330;2023-09-08T05:57:17;18.70;92.60
3550;DHT22;45572;48.804;8.330;2023-09-08T05:59:45;18.70;92.10
3550;DHT22;45572;48.804;8.330;2023-09-08T06:02:14;18.70;92.60
3550;DHT22;45572;48.804;8.330;2023-09-08T06:04:42;18.80;92.40
3550;DHT22;45572;48.804;8.330;2023-09-08T06:07:12;19.00;92.20
3550;DHT22;45572;48.804;8.330;2023-09-08T06:09:40;19.10;91.70
3550;DHT22;45572;48.804;8.330;2023-09-08T06:12:08;19.30;91.30
3550;DHT22;45572;48.804;8.330;2023-09-08T06:14:36;19.50;90.70
3550;DHT22;45572;48.804;8.330;2023-09-08T06:17:04;19.70;90.50
3550;DHT22;45572;48.804;8.330;2023-09-08T06:19:33;20.20;90.30
3550;DHT22;45572;48.804;8.330;2023-09-08T06:22:01;21.10;88.70
3550;DHT22;45572;48.804;8.330;2023-09-08T06:24:29;22.30;85.70
3550;DHT22;45572;48.804;8.330;2023-09-08T06:26:57;23.40;82.40
3550;DHT22;45572;48.804;8.330;2023-09-08T06:29:25;24.30;79.10
3550;DHT22;45572;48.804;8.330;2023-09-08T06:31:53;25.30;76.30
3550;DHT22;45572;48.804;8.330;2023-09-08T06:34:21;26.30;74.20
3550;DHT22;45572;48.804;8.330;2023-09-08T06:36:51;27.00;72.00
3550;DHT22;45572;48.804;8.330;2023-09-08T06:39:19;27.30;70.50
3550;DHT22;45572;48.804;8.330;2023-09-08T06:41:46;28.10;69.10
3550;DHT22;45572;48.804;8.330;2023-09-08T06:44:16;28.30;67.40
3550;DHT22;45572;48.804;8.330;2023-09-08T06:46:45;28.80;66.30
3550;DHT22;45572;48.804;8.330;2023-09-08T06:49:14;28.90;66.30
3550;DHT22;45572;48.804;8.330;2023-09-08T06:51:41;29.60;64.00
3550;DHT22;45572;48.804;8.330;2023-09-08T06:54:11;30.00;63.00
3550;DHT22;45572;48.804;8.330;2023-09-08T06:56:41;30.60;62.90
3550;DHT22;45572;48.804;8.330;2023-09-08T06:59:10;31.30;61.80
3550;DHT22;45572;48.804;8.330;2023-09-08T07:01:38;32.00;58.10
3550;DHT22;45572;48.804;8.330;2023-09-08T07:04:07;32.40;57.30
3550;DHT22;45572;48.804;8.330;2023-09-08T07:06:36;32.40;57.80
3550;DHT22;45572;48.804;8.330;2023-09-08T07:09:05;33.00;55.80
3550;DHT22;45572;48.804;8.330;2023-09-08T07:11:34;32.50;55.70
3550;DHT22;45572;48.804;8.330;2023-09-08T07:14:02;33.00;56.00
3550;DHT22;45572;48.804;8.330;2023-09-08T07:16:32;33.40;56.00
3550;DHT22;45572;48.804;8.330;2023-09-08T07:19:01;33.40;55.10
3550;DHT22;45572;48.804;8.330;2023-09-08T07:21:29;34.10;54.70
3550;DHT22;45572;48.804;8.330;2023-09-08T07:23:57;34.90;53.40
3550;DHT22;45572;48.804;8.330;2023-09-08T07:26:26;35.50;52.20
3550;DHT22;45572;48.804;8.330;2023-09-08T07:28:55;35.20;51.50
3550;DHT22;45572;48.804;8.330;2023-09-08T07:31:23;34.80;52.50
3550;DHT22;45572;48.804;8.330;2023-09-08T07:33:52;35.60;51.30
3550;DHT22;45572;48.804;8.330;2023-09-08T07:36:20;36.10;50.40
3550;DHT22;45572;48.804;8.330;2023-09-08T07:38:52;35.90;50.30
3550;DHT22;45572;48.804;8.330;2023-09-08T07:41:20;36.60;49.30
3550;DHT22;45572;48.804;8.330;2023-09-08T07:43:48;37.20;49.70
3550;DHT22;45572;48.804;8.330;2023-09-08T07:46:22;37.70;48.60
3550;DHT22;45572;48.804;8.330;2023-09-08T07:48:51;38.30;48.40
3550;DHT22;45572;48.804;8.330;2023-09-08T07:51:20;38.60;47.40
3550;DHT22;45572;48.804;8.330;2023-09-08T07:53:49;39.10;47.50
3550;DHT22;45572;48.804;8.330;2023-09-08T07:56:18;39.40;47.20
3550;DHT22;45572;48.804;8.330;2023-09-08T07:58:48;39.90;46.70
3550;DHT22;45572;48.804;8.330;2023-09-08T08:01:29;40.30;45.30
3550;DHT22;45572;48.804;8.330;2023-09-08T08:03:58;40.50;45.30
3550;DHT22;45572;48.804;8.330;2023-09-08T08:06:29;40.80;44.80
3550;DHT22;45572;48.804;8.330;2023-09-08T08:08:57;41.00;45.00
3550;DHT22;45572;48.804;8.330;2023-09-08T08:11:28;41.10;44.80
3550;DHT22;45572;48.804;8.330;2023-09-08T08:13:56;41.40;43.90
3550;DHT22;45572;48.804;8.330;2023-09-08T08:16:25;41.60;43.10
3550;DHT22;45572;48.804;8.330;2023-09-08T08:18:53;41.60;43.60
3550;DHT22;45572;48.804;8.330;2023-09-08T08:21:21;41.60;43.70
3550;DHT22;45572;48.804;8.330;2023-09-08T08:23:51;41.80;44.00
3550;DHT22;45572;48.804;8.330;2023-09-08T08:26:18;41.80;43.70
3550;DHT22;45572;48.804;8.330;2023-09-08T08:28:46;42.10;43.30
3550;DHT22;45572;48.804;8.330;2023-09-08T08:31:14;42.30;43.30
3550;DHT22;45572;48.804;8.330;2023-09-08T08:33:43;42.40;42.80
3550;DHT22;45572;48.804;8.330;2023-09-08T08:36:11;42.40;43.20
3550;DHT22;45572;48.804;8.330;2023-09-08T08:38:39;42.40;42.70
3550;DHT22;45572;48.804;8.330;2023-09-08T08:41:07;42.60;42.30
3550;DHT22;45572;48.804;8.330;2023-09-08T08:43:35;42.60;43.10
3550;DHT22;45572;48.804;8.330;2023-09-08T08:46:03;42.80;42.20
3550;DHT22;45572;48.804;8.330;2023-09-08T08:48:32;42.90;42.50
3550;DHT22;45572;48.804;8.330;2023-09-08T08:51:03;42.90;42.70
3550;DHT22;45572;48.804;8.330;2023-09-08T08:53:32;43.30;42.00
3550;DHT22;45572;48.804;8.330;2023-09-08T08:56:01;43.70;41.60
3550;DHT22;45572;48.804;8.330;2023-09-08T08:58:30;43.90;41.70
3550;DHT22;45572;48.804;8.330;2023-09-08T09:00:59;44.20;41.10
3550;DHT22;45572;48.804;8.330;2023-09-08T09:03:29;44.30;40.50
3550;DHT22;45572;48.804;8.330;2023-09-08T09:06:03;44.40;41.60
3550;DHT22;45572;48.804;8.330;2023-09-08T09:08:33;44.40;40.70
3550;DHT22;45572;48.804;8.330;2023-09-08T09:11:02;44.70;41.20
3550;DHT22;45572;48.804;8.330;2023-09-08T09:13:30;44.90;40.80
3550;DHT22;45572;48.804;8.330;2023-09-08T09:15:58;44.70;40.40
3550;DHT22;45572;48.804;8.330;2023-09-08T09:18:27;44.50;40.30
3550;DHT22;45572;48.804;8.330;2023-09-08T09:20:59;44.80;41.00
3550;DHT22;45572;48.804;8.330;2023-09-08T09:23:30;44.70;39.90
3550;DHT22;45572;48.804;8.330;2023-09-08T09:25:59;44.80;40.70
3550;DHT22;45572;48.804;8.330;2023-09-08T09:28:28;45.00;39.70
3550;DHT22;45572;48.804;8.330;2023-09-08T09:30:57;45.30;39.80
3550;DHT22;45572;48.804;8.330;2023-09-08T09:33:28;45.40;40.40
3550;DHT22;45572;48.804;8.330;2023-09-08T09:35:56;45.70;40.50
3550;DHT22;45572;48.804;8.330;2023-09-08T09:38:26;45.90;39.90
3550;DHT22;45572;48.804;8.330;2023-09-08T09:40:56;46.20;38.60
3550;DHT22;45572;48.804;8.330;2023-09-08T09:43:24;46.10;38.60
3550;DHT22;45572;48.804;8.330;2023-09-08T09:45:51;45.60;38.90
3550;DHT22;45572;48.804;8.330;2023-09-08T09:48:21;45.40;40.30
3550;DHT22;45572;48.804;8.330;2023-09-08T09:50:49;45.50;39.00
3550;DHT22;45572;48.804;8.330;2023-09-08T09:53:17;45.50;40.20
3550;DHT22;45572;48.804;8.330;2023-09-08T09:55:46;45.80;39.30
3550;DHT22;45572;48.804;8.330;2023-09-08T09:58:15;46.00;39.20
3550;DHT22;45572;48.804;8.330;2023-09-08T10:00:43;46.00;39.80
3550;DHT22;45572;48.804;8.330;2023-09-08T10:03:17;46.20;39.80
3550;DHT22;45572;48.804;8.330;2023-09-08T10:05:46;45.80;39.10
3550;DHT22;45572;48.804;8.330;2023-09-08T10:08:15;45.90;39.40
3550;DHT22;45572;48.804;8.330;2023-09-08T10:10:45;46.00;38.70
3550;DHT22;45572;48.804;8.330;2023-09-08T10:13:21;45.80;40.20
3550;DHT22;45572;48.804;8.330;2023-09-08T10:15:52;45.30;40.30
3550;DHT22;45572;48.804;8.330;2023-09-08T10:18:20;45.60;39.90
3550;DHT22;45572;48.804;8.330;2023-09-08T10:20:49;45.50;40.30
3550;DHT22;45572;48.804;8.330;2023-09-08T10:23:22;46.10;40.50
3550;DHT22;45572;48.804;8.330;2023-09-08T10:25:55;46.40;39.00
3550;DHT22;45572;48.804;8.330;2023-09-08T10:28:29;45.70;39.90
3550;DHT22;45572;48.804;8.330;2023-09-08T10:30:59;46.30;40.00
3550;DHT22;45572;48.804;8.330;2023-09-08T10:33:27;46.60;39.70
3550;DHT22;45572;48.804;8.330;2023-09-08T10:35:57;46.70;38.70
3550;DHT22;45572;48.804;8.330;2023-09-08T10:38:27;46.80;38.30
3550;DHT22;45572;48.804;8.330;2023-09-08T10:41:26;45.60;38.40
3550;DHT22;45572;48.804;8.330;2023-09-08T10:44:01;45.60;38.90
3550;DHT22;45572;48.804;8.330;2023-09-08T10:46:32;45.80;39.10
3550;DHT22;45572;48.804;8.330;2023-09-08T10:49:03;46.20;38.50
3550;DHT22;45572;48.804;8.330;2023-09-08T10:51:31;46.50;39.50
3550;DHT22;45572;48.804;8.330;2023-09-08T10:54:01;46.50;38.00
3550;DHT22;45572;48.804;8.330;2023-09-08T10:56:47;45.20;39.40
3550;DHT22;45572;48.804;8.330;2023-09-08T10:59:18;45.30;39.70
3550;DHT22;45572;48.804;8.330;2023-09-08T11:01:47;45.60;40.00
3550;DHT22;45572;48.804;8.330;2023-09-08T11:04:15;45.80;38.80
3550;DHT22;45572;48.804;8.330;2023-09-08T11:06:46;45.80;40.50
3550;DHT22;45572;48.804;8.330;2023-09-08T11:09:13;45.60;38.80
3550;DHT22;45572;48.804;8.330;2023-09-08T11:11:45;45.80;39.30
3550;DHT22;45572;48.804;8.330;2023-09-08T11:14:13;46.10;39.60
3550;DHT22;45572;48.804;8.330;2023-09-08T11:16:42;46.30;38.70
3550;DHT22;45572;48.804;8.330;2023-09-08T11:19:11;46.30;38.80
3550;DHT22;45572;48.804;8.330;2023-09-08T11:21:39;46.20;38.80
3550;DHT22;45572;48.804;8.330;2023-09-08T11:24:08;46.60;39.10
3550;DHT22;45572;48.804;8.330;2023-09-08T11:26:37;46.90;38.20
3550;DHT22;45572;48.804;8.330;2023-09-08T11:29:05;46.60;38.80
3550;DHT22;45572;48.804;8.330;2023-09-08T11:31:33;46.60;38.30
3550;DHT22;45572;48.804;8.330;2023-09-08T11:34:04;46.70;38.40
3550;DHT22;45572;48.804;8.330;2023-09-08T11:36:34;45.60;39.20
3550;DHT22;45572;48.804;8.330;2023-09-08T11:39:04;45.80;39.50
3550;DHT22;45572;48.804;8.330;2023-09-08T11:41:33;45.70;39.50
3550;DHT22;45572;48.804;8.330;2023-09-08T11:44:00;45.90;39.50
3550;DHT22;45572;48.804;8.330;2023-09-08T11:46:28;45.40;39.00
3550;DHT22;45572;48.804;8.330;2023-09-08T11:48:57;45.90;39.20
3550;DHT22;45572;48.804;8.330;2023-09-08T11:51:28;45.70;39.00
3550;DHT22;45572;48.804;8.330;2023-09-08T11:53:56;45.10;39.30
3550;DHT22;45572;48.804;8.330;2023-09-08T11:56:24;45.20;40.00
3550;DHT22;45572;48.804;8.330;2023-09-08T11:58:52;45.40;40.40
3550;DHT22;45572;48.804;8.330;2023-09-08T12:01:20;45.00;40.20
3550;DHT22;45572;48.804;8.330;2023-09-08T12:03:53;44.90;40.10
3550;DHT22;45572;48.804;8.330;2023-09-08T12:06:24;45.00;39.80
3550;DHT22;45572;48.804;8.330;2023-09-08T12:08:53;44.60;40.30
3550;DHT22;45572;48.804;8.330;2023-09-08T12:11:21;44.20;41.10
3550;DHT22;45572;48.804;8.330;2023-09-08T12:13:49;43.10;42.50
3550;DHT22;45572;48.804;8.330;2023-09-08T12:16:18;41.60;43.90
3550;DHT22;45572;48.804;8.330;2023-09-08T12:18:46;40.20;46.40
3550;DHT22;45572;48.804;8.330;2023-09-08T12:21:15;38.80;48.70
3550;DHT22;45572;48.804;8.330;2023-09-08T12:23:47;37.60;50.30
3550;DHT22;45572;48.804;8.330;2023-09-08T12:26:17;36.70;52.40
3550;DHT22;45572;48.804;8.330;2023-09-08T12:28:47;35.90;54.00
3550;DHT22;45572;48.804;8.330;2023-09-08T12:31:16;35.20;55.80
3550;DHT22;45572;48.804;8.330;2023-09-08T12:33:46;34.50;56.40
3550;DHT22;45572;48.804;8.330;2023-09-08T12:36:18;34.10;57.80
3550;DHT22;45572;48.804;8.330;2023-09-08T12:38:47;33.80;58.50
3550;DHT22;45572;48.804;8.330;2023-09-08T12:41:17;33.40;58.70
3550;DHT22;45572;48.804;8.330;2023-09-08T12:43:46;33.30;58.90
3550;DHT22;45572;48.804;8.330;2023-09-08T12:46:17;32.90;59.50
3550;DHT22;45572;48.804;8.330;2023-09-08T12:48:45;32.80;60.80
3550;DHT22;45572;48.804;8.330;2023-09-08T12:51:13;32.70;60.80
3550;DHT22;45572;48.804;8.330;2023-09-08T12:53:40;32.60;63.10
3550;DHT22;45572;48.804;8.330;2023-09-08T12:56:08;32.60;62.10
3550;DHT22;45572;48.804;8.330;2023-09-08T12:58:38;32.50;61.30
3550;DHT22;45572;48.804;8.330;2023-09-08T13:01:06;32.50;61.80
3550;DHT22;45572;48.804;8.330;2023-09-08T13:03:34;32.50;61.20
3550;DHT22;45572;48.804;8.330;2023-09-08T13:06:02;32.50;61.50
3550;DHT22;45572;48.804;8.330;2023-09-08T13:08:32;32.40;62.90
3550;DHT22;45572;48.804;8.330;2023-09-08T13:11:01;32.30;62.80
3550;DHT22;45572;48.804;8.330;2023-09-08T13:13:29;32.10;63.30
3550;DHT22;45572;48.804;8.330;2023-09-08T13:15:59;32.00;61.30
3550;DHT22;45572;48.804;8.330;2023-09-08T13:18:27;32.00;63.00
3550;DHT22;45572;48.804;8.330;2023-09-08T13:20:57;32.00;63.10
3550;DHT22;45572;48.804;8.330;2023-09-08T13:23:25;32.00;62.80
3550;DHT22;45572;48.804;8.330;2023-09-08T13:25:53;32.00;63.10
3550;DHT22;45572;48.804;8.330;2023-09-08T13:28:21;31.70;64.60
3550;DHT22;45572;48.804;8.330;2023-09-08T13:30:49;31.70;62.70
3550;DHT22;45572;48.804;8.330;2023-09-08T13:33:18;31.70;64.90
3550;DHT22;45572;48.804;8.330;2023-09-08T13:35:46;31.60;64.60
3550;DHT22;45572;48.804;8.330;2023-09-08T13:38:17;31.60;64.30
3550;DHT22;45572;48.804;8.330;2023-09-08T13:40:45;31.60;63.90
3550;DHT22;45572;48.804;8.330;2023-09-08T13:43:13;31.50;64.10
3550;DHT22;45572;48.804;8.330;2023-09-08T13:45:41;31.40;65.30
3550;DHT22;45572;48.804;8.330;2023-09-08T13:48:09;31.50;63.70
3550;DHT22;45572;48.804;8.330;2023-09-08T13:50:39;31.50;63.80
3550;DHT22;45572;48.804;8.330;2023-09-08T13:53:10;31.50;64.00
3550;DHT22;45572;48.804;8.330;2023-09-08T13:55:40;31.40;63.60
3550;DHT22;45572;48.804;8.330;2023-09-08T13:58:11;31.30;63.20
3550;DHT22;45572;48.804;8.330;2023-09-08T14:00:40;31.20;64.60
3550;DHT22;45572;48.804;8.330;2023-09-08T14:03:13;31.20;65.20
3550;DHT22;45572;48.804;8.330;2023-09-08T14:05:49;31.30;65.10
3550;DHT22;45572;48.804;8.330;2023-09-08T14:08:20;31.20;64.00
3550;DHT22;45572;48.804;8.330;2023-09-08T14:10:55;31.30;64.70
3550;DHT22;45572;48.804;8.330;2023-09-08T14:13:26;31.30;64.20
3550;DHT22;45572;48.804;8.330;2023-09-08T14:15:54;31.30;64.30
3550;DHT22;45572;48.804;8.330;2023-09-08T14:18:22;31.30;63.40
3550;DHT22;45572;48.804;8.330;2023-09-08T14:20:51;31.30;66.10
3550;DHT22;45572;48.804;8.330;2023-09-08T14:23:19;31.30;63.70
3550;DHT22;45572;48.804;8.330;2023-09-08T14:25:50;31.20;64.00
3550;DHT22;45572;48.804;8.330;2023-09-08T14:28:19;31.30;64.40
3550;DHT22;45572;48.804;8.330;2023-09-08T14:30:49;31.30;63.80
3550;DHT22;45572;48.804;8.330;2023-09-08T14:33:17;31.40;64.80
3550;DHT22;45572;48.804;8.330;2023-09-08T14:35:45;31.30;64.80
3550;DHT22;45572;48.804;8.330;2023-09-08T14:51:25;31.40;63.70
3550;DHT22;45572;48.804;8.330;2023-09-08T14:53:53;31.70;62.90
3550;DHT22;45572;48.804;8.330;2023-09-08T14:56:21;31.60;63.50
3550;DHT22;45572;48.804;8.330;2023-09-08T14:58:49;31.40;63.70
3550;DHT22;45572;48.804;8.330;2023-09-08T15:01:17;31.30;65.10
3550;DHT22;45572;48.804;8.330;2023-09-08T15:03:45;31.30;64.80
3550;DHT22;45572;48.804;8.330;2023-09-08T15:06:13;31.20;65.00
3550;DHT22;45572;48.804;8.330;2023-09-08T15:08:49;31.10;65.40
3550;DHT22;45572;48.804;8.330;2023-09-08T15:11:19;31.00;65.40
3550;DHT22;45572;48.804;8.330;2023-09-08T15:13:47;31.00;65.40
3550;DHT22;45572;48.804;8.330;2023-09-08T15:16:15;30.90;65.80
3550;DHT22;45572;48.804;8.330;2023-09-08T15:18:43;30.80;66.50
3550;DHT22;45572;48.804;8.330;2023-09-08T15:21:11;30.80;64.30
3550;DHT22;45572;48.804;8.330;2023-09-08T15:23:38;30.70;66.90
3550;DHT22;45572;48.804;8.330;2023-09-08T15:26:08;30.70;67.20
3550;DHT22;45572;48.804;8.330;2023-09-08T15:28:36;30.70;65.40
3550;DHT22;45572;48.804;8.330;2023-09-08T15:31:05;30.60;67.00
3550;DHT22;45572;48.804;8.330;2023-09-08T15:33:34;30.60;65.60
3550;DHT22;45572;48.804;8.330;2023-09-08T15:36:04;30.60;64.80
3550;DHT22;45572;48.804;8.330;2023-09-08T15:38:33;30.50;65.70
3550;DHT22;45572;48.804;8.330;2023-09-08T15:44:06;30.50;65.70
3550;DHT22;45572;48.804;8.330;2023-09-08T15:46:33;30.40;65.50
3550;DHT22;45572;48.804;8.330;2023-09-08T15:49:02;30.40;65.70
3550;DHT22;45572;48.804;8.330;2023-09-08T15:51:30;30.30;65.00
3550;DHT22;45572;48.804;8.330;2023-09-08T15:53:57;30.30;64.90
3550;DHT22;45572;48.804;8.330;2023-09-08T15:56:26;30.30;64.90
3550;DHT22;45572;48.804;8.330;2023-09-08T15:58:53;30.30;64.50
3550;DHT22;45572;48.804;8.330;2023-09-08T16:01:25;30.40;63.20
3550;DHT22;45572;48.804;8.330;2023-09-08T16:03:53;30.30;63.90
3550;DHT22;45572;48.804;8.330;2023-09-08T16:06:21;30.40;64.50
3550;DHT22;45572;48.804;8.330;2023-09-08T16:08:51;30.30;64.80
3550;DHT22;45572;48.804;8.330;2023-09-08T16:11:19;30.20;64.20